sensor_id;sensor_type;location;lat;lon;timestamp;P1;durP1;ratioP1;P2;durP2;ratioP2
29908;SDS011;36247;51.952;6.146;2023-04-03T00:01:18;6.22;;;3.25;;
29908;SDS011;36247;51.952;6.146;2023-04-03T00:03:44;7.05;;;3.33;;
29908;SDS011;36247;51.952;6.146;2023-04-03T00:06:11;4.97;;;2.83;;
29908;SDS011;36247;51.952;6.146;2023-04-03T00:08:37;7.43;;;3.50;;
29908;SDS011;36247;51.952;6.146;2023-04-03T00:11:08;10.68;;;4.40;;
29908;SDS011;36247;51.952;6.146;2023-04-03T00:13:35;5.35;;;3.33;;
29908;SDS011;36247;51.952;6.146;2023-04-03T00:16:02;6.97;;;3.30;;
29908;SDS011;36247;51.952;6.146;2023-04-03T00:18:28;6.82;;;3.58;;
29908;SDS011;36247;51.952;6.146;2023-04-03T00:20:56;7.00;;;3.10;;
29908;SDS011;36247;51.952;6.146;2023-04-03T00:23:25;4.47;;;3.13;;
29908;SDS011;36247;51.952;6.146;2023-04-03T00:25:54;4.07;;;2.80;;
29908;SDS011;36247;51.952;6.146;2023-04-03T00:28:21;5.40;;;3.40;;
29908;SDS011;36247;51.952;6.146;2023-04-03T00:30:50;8.88;;;3.45;;
29908;SDS011;36247;51.952;6.146;2023-04-03T00:33:20;6.85;;;3.03;;
29908;SDS011;36247;51.952;6.146;2023-04-03T00:35:47;4.10;;;3.30;;
29908;SDS011;36247;51.952;6.146;2023-04-03T00:38:14;6.10;;;2.95;;
29908;SDS011;36247;51.952;6.146;2023-04-03T00:40:48;4.78;;;3.05;;
29908;SDS011;36247;51.952;6.146;2023-04-03T00:43:16;5.90;;;3.35;;
29908;SDS011;36247;51.952;6.146;2023-04-03T00:45:48;4.63;;;3.15;;
29908;SDS011;36247;51.952;6.146;2023-04-03T00:48:26;6.88;;;2.88;;
29908;SDS011;36247;51.952;6.146;2023-04-03T00:50:58;7.13;;;3.28;;
29908;SDS011;36247;51.952;6.146;2023-04-03T00:53:26;7.25;;;3.78;;
29908;SDS011;36247;51.952;6.146;2023-04-03T00:56:23;2.85;;;2.33;;
29908;SDS011;36247;51.952;6.146;2023-04-03T00:59:17;3.50;;;2.50;;
29908;SDS011;36247;51.952;6.146;2023-04-03T01:01:48;10.63;;;3.05;;
29908;SDS011;36247;51.952;6.146;2023-04-03T01:04:34;4.75;;;2.80;;
29908;SDS011;36247;51.952;6.146;2023-04-03T01:07:24;5.22;;;2.53;;
29908;SDS011;36247;51.952;6.146;2023-04-03T01:09:56;5.57;;;2.72;;
29908;SDS011;36247;51.952;6.146;2023-04-03T01:12:35;7.28;;;2.78;;
29908;SDS011;36247;51.952;6.146;2023-04-03T01:15:19;6.32;;;2.90;;
29908;SDS011;36247;51.952;6.146;2023-04-03T01:17:52;7.60;;;3.20;;
29908;SDS011;36247;51.952;6.146;2023-04-03T01:25:36;5.22;;;2.70;;
29908;SDS011;36247;51.952;6.146;2023-04-03T01:28:09;6.50;;;2.58;;
29908;SDS011;36247;51.952;6.146;2023-04-03T01:33:45;4.88;;;2.67;;
29908;SDS011;36247;51.952;6.146;2023-04-03T01:36:17;8.05;;;3.05;;
29908;SDS011;36247;51.952;6.146;2023-04-03T01:38:46;6.82;;;2.75;;
29908;SDS011;36247;51.952;6.146;2023-04-03T01:41:13;5.88;;;2.72;;
29908;SDS011;36247;51.952;6.146;2023-04-03T01:43:47;2.92;;;2.63;;
29908;SDS011;36247;51.952;6.146;2023-04-03T01:46:17;4.40;;;2.60;;
29908;SDS011;36247;51.952;6.146;2023-04-03T01:48:56;7.60;;;3.15;;
29908;SDS011;36247;51.952;6.146;2023-04-03T01:51:35;5.40;;;3.30;;
29908;SDS011;36247;51.952;6.146;2023-04-03T01:54:09;6.25;;;2.83;;
29908;SDS011;36247;51.952;6.146;2023-04-03T01:56:36;7.47;;;2.92;;
29908;SDS011;36247;51.952;6.146;2023-04-03T01:59:07;8.98;;;3.22;;
29908;SDS011;36247;51.952;6.146;2023-04-03T02:01:41;6.35;;;3.30;;
29908;SDS011;36247;51.952;6.146;2023-04-03T02:04:09;5.65;;;3.00;;
29908;SDS011;36247;51.952;6.146;2023-04-03T02:06:35;6.85;;;2.90;;
29908;SDS011;36247;51.952;6.146;2023-04-03T02:09:02;7.10;;;2.90;;
29908;SDS011;36247;51.952;6.146;2023-04-03T02:11:32;4.57;;;2.78;;
29908;SDS011;36247;51.952;6.146;2023-04-03T02:13:58;5.63;;;3.10;;
29908;SDS011;36247;51.952;6.146;2023-04-03T02:16:24;11.10;;;2.90;;
29908;SDS011;36247;51.952;6.146;2023-04-03T02:18:50;6.30;;;3.30;;
29908;SDS011;36247;51.952;6.146;2023-04-03T02:21:16;6.18;;;3.15;;
29908;SDS011;36247;51.952;6.146;2023-04-03T02:27:39;7.68;;;3.40;;
29908;SDS011;36247;51.952;6.146;2023-04-03T02:30:06;6.32;;;2.90;;
29908;SDS011;36247;51.952;6.146;2023-04-03T02:32:36;7.93;;;3.40;;
29908;SDS011;36247;51.952;6.146;2023-04-03T02:35:09;5.55;;;3.45;;
29908;SDS011;36247;51.952;6.146;2023-04-03T02:37:39;6.20;;;3.00;;
29908;SDS011;36247;51.952;6.146;2023-04-03T02:40:06;5.28;;;3.30;;
29908;SDS011;36247;51.952;6.146;2023-04-03T02:42:38;5.53;;;3.00;;
29908;SDS011;36247;51.952;6.146;2023-04-03T02:45:05;7.00;;;2.90;;
29908;SDS011;36247;51.952;6.146;2023-04-03T02:47:32;6.90;;;3.00;;
29908;SDS011;36247;51.952;6.146;2023-04-03T02:49:58;6.47;;;3.00;;
29908;SDS011;36247;51.952;6.146;2023-04-03T02:52:24;4.13;;;2.67;;
29908;SDS011;36247;51.952;6.146;2023-04-03T02:54:54;12.13;;;3.45;;
29908;SDS011;36247;51.952;6.146;2023-04-03T02:57:20;8.38;;;3.55;;
29908;SDS011;36247;51.952;6.146;2023-04-03T02:59:50;9.02;;;3.25;;
29908;SDS011;36247;51.952;6.146;2023-04-03T03:02:15;6.88;;;3.20;;
29908;SDS011;36247;51.952;6.146;2023-04-03T03:04:41;7.47;;;3.70;;
29908;SDS011;36247;51.952;6.146;2023-04-03T03:07:07;6.95;;;3.38;;
29908;SDS011;36247;51.952;6.146;2023-04-03T03:09:33;7.45;;;3.13;;
29908;SDS011;36247;51.952;6.146;2023-04-03T03:11:59;8.52;;;2.97;;
29908;SDS011;36247;51.952;6.146;2023-04-03T03:14:25;7.55;;;3.50;;
29908;SDS011;36247;51.952;6.146;2023-04-03T03:16:51;4.18;;;2.92;;
29908;SDS011;36247;51.952;6.146;2023-04-03T03:19:20;6.78;;;3.33;;
29908;SDS011;36247;51.952;6.146;2023-04-03T03:21:45;6.00;;;3.08;;
29908;SDS011;36247;51.952;6.146;2023-04-03T03:24:11;9.13;;;3.10;;
29908;SDS011;36247;51.952;6.146;2023-04-03T03:26:37;5.57;;;2.83;;
29908;SDS011;36247;51.952;6.146;2023-04-03T03:29:03;10.57;;;4.07;;
29908;SDS011;36247;51.952;6.146;2023-04-03T03:31:31;9.32;;;3.47;;
29908;SDS011;36247;51.952;6.146;2023-04-03T03:33:58;10.55;;;3.40;;
29908;SDS011;36247;51.952;6.146;2023-04-03T03:36:27;7.18;;;3.25;;
29908;SDS011;36247;51.952;6.146;2023-04-03T03:38:53;5.35;;;3.15;;
29908;SDS011;36247;51.952;6.146;2023-04-03T03:41:19;7.15;;;3.17;;
29908;SDS011;36247;51.952;6.146;2023-04-03T03:43:46;14.70;;;3.80;;
29908;SDS011;36247;51.952;6.146;2023-04-03T03:46:14;5.63;;;2.60;;
29908;SDS011;36247;51.952;6.146;2023-04-03T03:48:40;7.40;;;2.97;;
29908;SDS011;36247;51.952;6.146;2023-04-03T03:51:05;6.05;;;3.05;;
29908;SDS011;36247;51.952;6.146;2023-04-03T03:53:35;7.45;;;3.22;;
29908;SDS011;36247;51.952;6.146;2023-04-03T03:56:05;6.60;;;3.50;;
29908;SDS011;36247;51.952;6.146;2023-04-03T03:58:32;5.35;;;3.10;;
29908;SDS011;36247;51.952;6.146;2023-04-03T04:01:33;9.02;;;3.70;;
29908;SDS011;36247;51.952;6.146;2023-04-03T04:04:00;5.75;;;3.28;;
29908;SDS011;36247;51.952;6.146;2023-04-03T04:06:30;24.05;;;7.25;;
29908;SDS011;36247;51.952;6.146;2023-04-03T04:09:00;10.27;;;4.50;;
29908;SDS011;36247;51.952;6.146;2023-04-03T04:11:27;11.05;;;5.13;;
29908;SDS011;36247;51.952;6.146;2023-04-03T04:13:54;13.95;;;4.63;;
29908;SDS011;36247;51.952;6.146;2023-04-03T04:16:24;8.88;;;4.07;;
29908;SDS011;36247;51.952;6.146;2023-04-03T04:18:55;9.52;;;3.67;;
29908;SDS011;36247;51.952;6.146;2023-04-03T04:21:22;5.13;;;3.10;;
29908;SDS011;36247;51.952;6.146;2023-04-03T04:23:51;6.22;;;3.00;;
29908;SDS011;36247;51.952;6.146;2023-04-03T04:26:20;5.72;;;3.10;;
29908;SDS011;36247;51.952;6.146;2023-04-03T04:28:46;9.85;;;3.47;;
29908;SDS011;36247;51.952;6.146;2023-04-03T04:31:13;4.93;;;2.95;;
29908;SDS011;36247;51.952;6.146;2023-04-03T04:33:40;5.55;;;3.33;;
29908;SDS011;36247;51.952;6.146;2023-04-03T04:36:08;8.85;;;3.47;;
29908;SDS011;36247;51.952;6.146;2023-04-03T04:38:35;9.75;;;4.07;;
29908;SDS011;36247;51.952;6.146;2023-04-03T04:41:01;4.68;;;2.75;;
29908;SDS011;36247;51.952;6.146;2023-04-03T04:43:28;13.10;;;4.00;;
29908;SDS011;36247;51.952;6.146;2023-04-03T04:46:08;5.72;;;3.20;;
29908;SDS011;36247;51.952;6.146;2023-04-03T04:48:45;8.02;;;2.78;;
29908;SDS011;36247;51.952;6.146;2023-04-03T04:51:15;5.40;;;3.13;;
29908;SDS011;36247;51.952;6.146;2023-04-03T04:53:42;14.93;;;4.47;;
29908;SDS011;36247;51.952;6.146;2023-04-03T04:56:19;14.75;;;3.45;;
29908;SDS011;36247;51.952;6.146;2023-04-03T04:58:47;10.15;;;3.80;;
29908;SDS011;36247;51.952;6.146;2023-04-03T05:01:15;5.88;;;3.35;;
29908;SDS011;36247;51.952;6.146;2023-04-03T05:03:50;12.10;;;3.38;;
29908;SDS011;36247;51.952;6.146;2023-04-03T05:06:21;5.55;;;3.20;;
29908;SDS011;36247;51.952;6.146;2023-04-03T05:08:48;7.20;;;4.82;;
29908;SDS011;36247;51.952;6.146;2023-04-03T05:11:15;4.78;;;3.30;;
29908;SDS011;36247;51.952;6.146;2023-04-03T05:13:44;8.02;;;3.30;;
29908;SDS011;36247;51.952;6.146;2023-04-03T05:16:11;11.30;;;3.72;;
29908;SDS011;36247;51.952;6.146;2023-04-03T05:18:38;5.53;;;3.60;;
29908;SDS011;36247;51.952;6.146;2023-04-03T05:21:08;10.40;;;3.67;;
29908;SDS011;36247;51.952;6.146;2023-04-03T05:23:37;7.20;;;3.15;;
29908;SDS011;36247;51.952;6.146;2023-04-03T05:26:07;8.18;;;3.25;;
29908;SDS011;36247;51.952;6.146;2023-04-03T05:28:37;11.80;;;3.10;;
29908;SDS011;36247;51.952;6.146;2023-04-03T05:31:08;8.20;;;3.80;;
29908;SDS011;36247;51.952;6.146;2023-04-03T05:33:37;12.88;;;3.42;;
29908;SDS011;36247;51.952;6.146;2023-04-03T05:36:15;5.90;;;3.40;;
29908;SDS011;36247;51.952;6.146;2023-04-03T05:39:01;13.07;;;3.40;;
29908;SDS011;36247;51.952;6.146;2023-04-03T05:41:32;7.50;;;3.30;;
29908;SDS011;36247;51.952;6.146;2023-04-03T05:44:02;7.63;;;3.97;;
29908;SDS011;36247;51.952;6.146;2023-04-03T05:46:28;8.13;;;3.22;;
29908;SDS011;36247;51.952;6.146;2023-04-03T05:48:58;6.43;;;3.45;;
29908;SDS011;36247;51.952;6.146;2023-04-03T05:51:30;12.07;;;3.55;;
29908;SDS011;36247;51.952;6.146;2023-04-03T05:57:11;12.98;;;3.85;;
29908;SDS011;36247;51.952;6.146;2023-04-03T05:59:43;6.70;;;2.88;;
29908;SDS011;36247;51.952;6.146;2023-04-03T06:02:20;7.70;;;3.40;;
29908;SDS011;36247;51.952;6.146;2023-04-03T06:05:04;11.98;;;3.75;;
29908;SDS011;36247;51.952;6.146;2023-04-03T06:07:54;7.85;;;3.20;;
29908;SDS011;36247;51.952;6.146;2023-04-03T06:10:23;7.82;;;3.45;;
29908;SDS011;36247;51.952;6.146;2023-04-03T06:12:50;6.82;;;3.20;;
29908;SDS011;36247;51.952;6.146;2023-04-03T06:15:16;8.77;;;3.63;;
29908;SDS011;36247;51.952;6.146;2023-04-03T06:17:45;7.03;;;3.33;;
29908;SDS011;36247;51.952;6.146;2023-04-03T06:20:12;5.35;;;2.88;;
29908;SDS011;36247;51.952;6.146;2023-04-03T06:22:39;9.30;;;3.42;;
29908;SDS011;36247;51.952;6.146;2023-04-03T06:25:07;4.93;;;3.17;;
29908;SDS011;36247;51.952;6.146;2023-04-03T06:27:38;9.45;;;3.40;;
29908;SDS011;36247;51.952;6.146;2023-04-03T06:30:04;7.57;;;3.17;;
29908;SDS011;36247;51.952;6.146;2023-04-03T06:32:32;6.97;;;3.08;;
29908;SDS011;36247;51.952;6.146;2023-04-03T06:34:59;7.35;;;3.40;;
29908;SDS011;36247;51.952;6.146;2023-04-03T06:37:25;9.15;;;3.92;;
29908;SDS011;36247;51.952;6.146;2023-04-03T06:39:51;7.32;;;2.90;;
29908;SDS011;36247;51.952;6.146;2023-04-03T06:42:17;7.85;;;3.25;;
29908;SDS011;36247;51.952;6.146;2023-04-03T06:45:06;8.90;;;3.17;;
29908;SDS011;36247;51.952;6.146;2023-04-03T06:47:33;7.38;;;3.35;;
29908;SDS011;36247;51.952;6.146;2023-04-03T06:49:59;9.45;;;3.80;;
29908;SDS011;36247;51.952;6.146;2023-04-03T06:52:25;6.82;;;3.33;;
29908;SDS011;36247;51.952;6.146;2023-04-03T06:54:51;13.30;;;3.35;;
29908;SDS011;36247;51.952;6.146;2023-04-03T06:57:23;8.38;;;3.40;;
29908;SDS011;36247;51.952;6.146;2023-04-03T06:59:49;7.97;;;3.55;;
29908;SDS011;36247;51.952;6.146;2023-04-03T07:02:19;13.07;;;3.83;;
29908;SDS011;36247;51.952;6.146;2023-04-03T07:04:46;8.85;;;3.13;;
29908;SDS011;36247;51.952;6.146;2023-04-03T07:07:13;9.13;;;3.00;;
29908;SDS011;36247;51.952;6.146;2023-04-03T07:09:39;6.78;;;3.05;;
29908;SDS011;36247;51.952;6.146;2023-04-03T07:12:05;9.82;;;3.10;;
29908;SDS011;36247;51.952;6.146;2023-04-03T07:14:37;9.45;;;3.42;;
29908;SDS011;36247;51.952;6.146;2023-04-03T07:17:02;6.70;;;3.42;;
29908;SDS011;36247;51.952;6.146;2023-04-03T07:19:28;8.77;;;2.88;;
29908;SDS011;36247;51.952;6.146;2023-04-03T07:21:54;8.32;;;3.10;;
29908;SDS011;36247;51.952;6.146;2023-04-03T07:24:21;5.82;;;2.85;;
29908;SDS011;36247;51.952;6.146;2023-04-03T07:26:53;11.18;;;4.10;;
29908;SDS011;36247;51.952;6.146;2023-04-03T07:29:19;7.85;;;3.20;;
29908;SDS011;36247;51.952;6.146;2023-04-03T07:31:47;8.23;;;2.85;;
29908;SDS011;36247;51.952;6.146;2023-04-03T07:34:15;7.60;;;3.20;;
29908;SDS011;36247;51.952;6.146;2023-04-03T07:36:41;7.25;;;3.17;;
29908;SDS011;36247;51.952;6.146;2023-04-03T07:39:07;9.25;;;3.20;;
29908;SDS011;36247;51.952;6.146;2023-04-03T07:41:34;7.28;;;2.95;;
29908;SDS011;36247;51.952;6.146;2023-04-03T07:44:00;9.02;;;2.75;;
29908;SDS011;36247;51.952;6.146;2023-04-03T07:46:28;6.07;;;2.50;;
29908;SDS011;36247;51.952;6.146;2023-04-03T07:48:57;4.85;;;2.45;;
29908;SDS011;36247;51.952;6.146;2023-04-03T07:51:23;6.07;;;3.63;;
29908;SDS011;36247;51.952;6.146;2023-04-03T07:53:53;6.90;;;2.72;;
29908;SDS011;36247;51.952;6.146;2023-04-03T07:56:19;7.07;;;3.13;;
29908;SDS011;36247;51.952;6.146;2023-04-03T07:58:45;6.65;;;2.95;;
29908;SDS011;36247;51.952;6.146;2023-04-03T08:01:11;3.92;;;2.40;;
29908;SDS011;36247;51.952;6.146;2023-04-03T08:03:38;7.05;;;2.78;;
29908;SDS011;36247;51.952;6.146;2023-04-03T08:06:06;5.63;;;2.58;;
29908;SDS011;36247;51.952;6.146;2023-04-03T08:08:43;4.60;;;2.25;;
29908;SDS011;36247;51.952;6.146;2023-04-03T08:11:14;13.40;;;2.60;;
29908;SDS011;36247;51.952;6.146;2023-04-03T08:13:44;5.97;;;2.42;;
29908;SDS011;36247;51.952;6.146;2023-04-03T08:16:13;6.65;;;2.28;;
29908;SDS011;36247;51.952;6.146;2023-04-03T08:18:58;4.88;;;2.20;;
29908;SDS011;36247;51.952;6.146;2023-04-03T08:21:25;3.60;;;2.38;;
29908;SDS011;36247;51.952;6.146;2023-04-03T08:23:53;7.18;;;2.33;;
29908;SDS011;36247;51.952;6.146;2023-04-03T08:26:36;5.28;;;2.33;;
29908;SDS011;36247;51.952;6.146;2023-04-03T08:29:03;6.57;;;2.45;;
29908;SDS011;36247;51.952;6.146;2023-04-03T08:31:30;6.00;;;1.90;;
29908;SDS011;36247;51.952;6.146;2023-04-03T08:33:59;5.72;;;2.03;;
29908;SDS011;36247;51.952;6.146;2023-04-03T08:36:26;6.22;;;2.22;;
29908;SDS011;36247;51.952;6.146;2023-04-03T08:39:05;3.70;;;1.77;;
29908;SDS011;36247;51.952;6.146;2023-04-03T08:44:21;5.03;;;2.17;;
29908;SDS011;36247;51.952;6.146;2023-04-03T08:49:30;2.15;;;1.70;;
29908;SDS011;36247;51.952;6.146;2023-04-03T08:52:23;5.60;;;1.83;;
29908;SDS011;36247;51.952;6.146;2023-04-03T08:55:00;4.97;;;2.22;;
29908;SDS011;36247;51.952;6.146;2023-04-03T08:57:33;4.35;;;1.73;;
29908;SDS011;36247;51.952;6.146;2023-04-03T09:05:35;4.55;;;1.60;;
29908;SDS011;36247;51.952;6.146;2023-04-03T09:10:58;7.65;;;2.10;;
29908;SDS011;36247;51.952;6.146;2023-04-03T09:16:30;4.05;;;2.40;;
29908;SDS011;36247;51.952;6.146;2023-04-03T09:22:17;2.97;;;1.75;;
29908;SDS011;36247;51.952;6.146;2023-04-03T09:24:57;2.70;;;1.83;;
29908;SDS011;36247;51.952;6.146;2023-04-03T09:27:31;3.22;;;1.70;;
29908;SDS011;36247;51.952;6.146;2023-04-03T09:29:58;2.85;;;1.80;;
29908;SDS011;36247;51.952;6.146;2023-04-03T09:32:27;2.40;;;1.35;;
29908;SDS011;36247;51.952;6.146;2023-04-03T09:35:26;1.65;;;1.33;;
29908;SDS011;36247;51.952;6.146;2023-04-03T09:43:51;2.03;;;1.48;;
29908;SDS011;36247;51.952;6.146;2023-04-03T09:46:38;1.65;;;1.17;;
29908;SDS011;36247;51.952;6.146;2023-04-03T09:49:05;1.33;;;1.20;;
29908;SDS011;36247;51.952;6.146;2023-04-03T09:51:36;5.65;;;1.70;;
29908;SDS011;36247;51.952;6.146;2023-04-03T09:57:12;2.33;;;1.20;;
29908;SDS011;36247;51.952;6.146;2023-04-03T09:59:41;2.47;;;1.70;;
29908;SDS011;36247;51.952;6.146;2023-04-03T10:02:28;4.32;;;1.50;;
29908;SDS011;36247;51.952;6.146;2023-04-03T10:04:58;4.28;;;1.30;;
29908;SDS011;36247;51.952;6.146;2023-04-03T10:07:35;5.10;;;1.27;;
29908;SDS011;36247;51.952;6.146;2023-04-03T10:10:16;2.00;;;1.58;;
29908;SDS011;36247;51.952;6.146;2023-04-03T10:17:56;2.83;;;1.60;;
29908;SDS011;36247;51.952;6.146;2023-04-03T10:26:01;3.70;;;1.30;;
29908;SDS011;36247;51.952;6.146;2023-04-03T10:31:44;2.38;;;1.50;;
29908;SDS011;36247;51.952;6.146;2023-04-03T10:34:33;2.63;;;1.40;;
29908;SDS011;36247;51.952;6.146;2023-04-03T10:40:02;2.72;;;1.40;;
29908;SDS011;36247;51.952;6.146;2023-04-03T10:42:43;3.50;;;1.50;;
29908;SDS011;36247;51.952;6.146;2023-04-03T10:56:09;4.28;;;1.75;;
29908;SDS011;36247;51.952;6.146;2023-04-03T10:59:26;4.38;;;1.60;;
29908;SDS011;36247;51.952;6.146;2023-04-03T11:01:56;2.15;;;1.35;;
29908;SDS011;36247;51.952;6.146;2023-04-03T11:04:29;2.45;;;1.52;;
29908;SDS011;36247;51.952;6.146;2023-04-03T11:07:08;2.28;;;1.40;;
29908;SDS011;36247;51.952;6.146;2023-04-03T11:09:56;2.35;;;1.33;;
29908;SDS011;36247;51.952;6.146;2023-04-03T11:15:42;3.22;;;1.67;;
29908;SDS011;36247;51.952;6.146;2023-04-03T11:18:22;4.32;;;1.60;;
29908;SDS011;36247;51.952;6.146;2023-04-03T11:21:02;4.22;;;1.52;;
29908;SDS011;36247;51.952;6.146;2023-04-03T11:23:36;3.85;;;1.58;;
29908;SDS011;36247;51.952;6.146;2023-04-03T11:26:26;3.42;;;1.63;;
29908;SDS011;36247;51.952;6.146;2023-04-03T11:29:03;2.00;;;1.45;;
29908;SDS011;36247;51.952;6.146;2023-04-03T11:34:15;2.58;;;1.40;;
29908;SDS011;36247;51.952;6.146;2023-04-03T11:37:11;2.58;;;2.05;;
29908;SDS011;36247;51.952;6.146;2023-04-03T11:39:48;3.63;;;1.60;;
29908;SDS011;36247;51.952;6.146;2023-04-03T11:42:44;3.17;;;1.40;;
29908;SDS011;36247;51.952;6.146;2023-04-03T11:47:50;2.42;;;1.80;;
29908;SDS011;36247;51.952;6.146;2023-04-03T12:16:19;4.85;;;1.98;;
29908;SDS011;36247;51.952;6.146;2023-04-03T12:18:56;3.45;;;1.50;;
29908;SDS011;36247;51.952;6.146;2023-04-03T12:24:28;3.88;;;1.70;;
29908;SDS011;36247;51.952;6.146;2023-04-03T12:27:09;3.70;;;1.58;;
29908;SDS011;36247;51.952;6.146;2023-04-03T12:30:05;2.15;;;1.80;;
29908;SDS011;36247;51.952;6.146;2023-04-03T12:33:30;5.57;;;2.03;;
29908;SDS011;36247;51.952;6.146;2023-04-03T12:50:20;3.97;;;1.85;;
29908;SDS011;36247;51.952;6.146;2023-04-03T12:58:55;3.30;;;1.67;;
29908;SDS011;36247;51.952;6.146;2023-04-03T13:01:41;2.70;;;1.85;;
29908;SDS011;36247;51.952;6.146;2023-04-03T13:04:09;3.80;;;2.13;;
29908;SDS011;36247;51.952;6.146;2023-04-03T13:06:40;3.55;;;2.00;;
29908;SDS011;36247;51.952;6.146;2023-04-03T13:09:21;2.92;;;2.22;;
29908;SDS011;36247;51.952;6.146;2023-04-03T13:12:03;5.38;;;2.13;;
29908;SDS011;36247;51.952;6.146;2023-04-03T13:14:37;3.70;;;2.00;;
29908;SDS011;36247;51.952;6.146;2023-04-03T13:17:09;4.40;;;2.20;;
29908;SDS011;36247;51.952;6.146;2023-04-03T13:19:41;5.68;;;2.10;;
29908;SDS011;36247;51.952;6.146;2023-04-03T13:25:09;5.90;;;2.20;;
29908;SDS011;36247;51.952;6.146;2023-04-03T13:27:38;3.50;;;1.83;;
29908;SDS011;36247;51.952;6.146;2023-04-03T13:32:49;3.15;;;2.28;;
29908;SDS011;36247;51.952;6.146;2023-04-03T13:35:25;2.35;;;2.10;;
29908;SDS011;36247;51.952;6.146;2023-04-03T13:37:56;2.80;;;1.85;;
29908;SDS011;36247;51.952;6.146;2023-04-03T13:40:25;4.75;;;1.80;;
29908;SDS011;36247;51.952;6.146;2023-04-03T13:45:38;4.30;;;2.22;;
29908;SDS011;36247;51.952;6.146;2023-04-03T13:50:40;2.83;;;1.90;;
29908;SDS011;36247;51.952;6.146;2023-04-03T13:53:18;5.35;;;2.22;;
29908;SDS011;36247;51.952;6.146;2023-04-03T13:56:06;3.97;;;1.88;;
29908;SDS011;36247;51.952;6.146;2023-04-03T13:58:35;2.83;;;1.67;;
29908;SDS011;36247;51.952;6.146;2023-04-03T14:01:08;5.38;;;2.50;;
29908;SDS011;36247;51.952;6.146;2023-04-03T14:03:45;3.17;;;1.83;;
29908;SDS011;36247;51.952;6.146;2023-04-03T14:06:21;3.67;;;2.05;;
29908;SDS011;36247;51.952;6.146;2023-04-03T14:08:48;2.53;;;1.77;;
29908;SDS011;36247;51.952;6.146;2023-04-03T14:11:22;3.00;;;1.95;;
29908;SDS011;36247;51.952;6.146;2023-04-03T14:13:52;5.63;;;1.73;;
29908;SDS011;36247;51.952;6.146;2023-04-03T14:16:22;4.30;;;2.00;;
29908;SDS011;36247;51.952;6.146;2023-04-03T14:18:51;3.45;;;2.13;;
29908;SDS011;36247;51.952;6.146;2023-04-03T14:21:18;6.07;;;2.15;;
29908;SDS011;36247;51.952;6.146;2023-04-03T14:23:49;3.67;;;2.40;;
29908;SDS011;36247;51.952;6.146;2023-04-03T14:26:17;3.13;;;2.00;;
29908;SDS011;36247;51.952;6.146;2023-04-03T14:28:47;3.80;;;2.35;;
29908;SDS011;36247;51.952;6.146;2023-04-03T14:31:18;3.90;;;2.10;;
29908;SDS011;36247;51.952;6.146;2023-04-03T14:33:45;5.30;;;2.13;;
29908;SDS011;36247;51.952;6.146;2023-04-03T14:36:16;5.38;;;2.53;;
29908;SDS011;36247;51.952;6.146;2023-04-03T14:38:49;3.17;;;1.90;;
29908;SDS011;36247;51.952;6.146;2023-04-03T14:41:17;3.35;;;1.83;;
29908;SDS011;36247;51.952;6.146;2023-04-03T14:43:45;3.45;;;1.95;;
29908;SDS011;36247;51.952;6.146;2023-04-03T14:46:13;3.00;;;2.13;;
29908;SDS011;36247;51.952;6.146;2023-04-03T14:48:41;3.90;;;1.92;;
29908;SDS011;36247;51.952;6.146;2023-04-03T14:51:08;4.53;;;1.60;;
29908;SDS011;36247;51.952;6.146;2023-04-03T14:53:36;3.08;;;1.98;;
29908;SDS011;36247;51.952;6.146;2023-04-03T14:56:04;3.88;;;1.85;;
29908;SDS011;36247;51.952;6.146;2023-04-03T14:58:58;2.83;;;1.92;;
29908;SDS011;36247;51.952;6.146;2023-04-03T15:01:30;3.47;;;2.00;;
29908;SDS011;36247;51.952;6.146;2023-04-03T15:03:56;2.90;;;2.08;;
29908;SDS011;36247;51.952;6.146;2023-04-03T15:06:25;3.50;;;2.33;;
29908;SDS011;36247;51.952;6.146;2023-04-03T15:08:54;4.22;;;2.30;;
29908;SDS011;36247;51.952;6.146;2023-04-03T15:11:21;6.05;;;2.60;;
29908;SDS011;36247;51.952;6.146;2023-04-03T15:13:50;3.60;;;2.22;;
29908;SDS011;36247;51.952;6.146;2023-04-03T15:16:28;5.45;;;2.40;;
29908;SDS011;36247;51.952;6.146;2023-04-03T15:19:17;4.80;;;2.30;;
29908;SDS011;36247;51.952;6.146;2023-04-03T15:21:43;2.95;;;1.88;;
29908;SDS011;36247;51.952;6.146;2023-04-03T15:24:09;4.20;;;2.08;;
29908;SDS011;36247;51.952;6.146;2023-04-03T15:26:35;5.10;;;2.25;;
29908;SDS011;36247;51.952;6.146;2023-04-03T15:29:02;5.20;;;2.83;;
29908;SDS011;36247;51.952;6.146;2023-04-03T15:31:28;4.55;;;2.22;;
29908;SDS011;36247;51.952;6.146;2023-04-03T15:33:54;3.63;;;2.40;;
29908;SDS011;36247;51.952;6.146;2023-04-03T15:36:24;5.65;;;2.67;;
29908;SDS011;36247;51.952;6.146;2023-04-03T15:38:51;4.57;;;2.17;;
29908;SDS011;36247;51.952;6.146;2023-04-03T15:41:18;2.50;;;2.05;;
29908;SDS011;36247;51.952;6.146;2023-04-03T15:43:44;4.10;;;2.30;;
29908;SDS011;36247;51.952;6.146;2023-04-03T15:46:16;5.53;;;2.47;;
29908;SDS011;36247;51.952;6.146;2023-04-03T15:48:43;8.00;;;2.30;;
29908;SDS011;36247;51.952;6.146;2023-04-03T15:51:12;5.45;;;2.20;;
29908;SDS011;36247;51.952;6.146;2023-04-03T15:53:38;4.85;;;2.30;;
29908;SDS011;36247;51.952;6.146;2023-04-03T15:56:04;6.43;;;2.75;;
29908;SDS011;36247;51.952;6.146;2023-04-03T15:58:33;5.68;;;2.50;;
29908;SDS011;36247;51.952;6.146;2023-04-03T16:01:04;4.35;;;2.33;;
29908;SDS011;36247;51.952;6.146;2023-04-03T16:03:31;2.72;;;2.10;;
29908;SDS011;36247;51.952;6.146;2023-04-03T16:06:01;6.20;;;2.45;;
29908;SDS011;36247;51.952;6.146;2023-04-03T16:08:27;3.78;;;2.50;;
29908;SDS011;36247;51.952;6.146;2023-04-03T16:10:54;4.55;;;2.42;;
29908;SDS011;36247;51.952;6.146;2023-04-03T16:13:24;2.60;;;2.00;;
29908;SDS011;36247;51.952;6.146;2023-04-03T16:15:50;4.70;;;2.22;;
29908;SDS011;36247;51.952;6.146;2023-04-03T16:18:21;5.30;;;2.28;;
29908;SDS011;36247;51.952;6.146;2023-04-03T16:20:47;4.35;;;2.05;;
29908;SDS011;36247;51.952;6.146;2023-04-03T16:23:13;5.15;;;2.72;;
29908;SDS011;36247;51.952;6.146;2023-04-03T16:25:40;4.18;;;2.17;;
29908;SDS011;36247;51.952;6.146;2023-04-03T16:28:10;4.25;;;2.17;;
29908;SDS011;36247;51.952;6.146;2023-04-03T16:30:37;3.47;;;2.03;;
29908;SDS011;36247;51.952;6.146;2023-04-03T16:33:06;3.97;;;2.45;;
29908;SDS011;36247;51.952;6.146;2023-04-03T16:35:32;3.38;;;1.90;;
29908;SDS011;36247;51.952;6.146;2023-04-03T16:37:58;2.92;;;1.98;;
29908;SDS011;36247;51.952;6.146;2023-04-03T16:40:31;4.55;;;2.25;;
29908;SDS011;36247;51.952;6.146;2023-04-03T16:43:01;5.35;;;2.13;;
29908;SDS011;36247;51.952;6.146;2023-04-03T16:45:27;6.10;;;1.88;;
29908;SDS011;36247;51.952;6.146;2023-04-03T16:47:57;5.15;;;2.28;;
29908;SDS011;36247;51.952;6.146;2023-04-03T16:50:33;5.82;;;2.38;;
29908;SDS011;36247;51.952;6.146;2023-04-03T16:52:59;3.50;;;2.03;;
29908;SDS011;36247;51.952;6.146;2023-04-03T16:55:31;4.82;;;2.25;;
29908;SDS011;36247;51.952;6.146;2023-04-03T16:57:57;5.85;;;2.30;;
29908;SDS011;36247;51.952;6.146;2023-04-03T17:00:23;4.53;;;2.15;;
29908;SDS011;36247;51.952;6.146;2023-04-03T17:02:49;5.22;;;2.50;;
29908;SDS011;36247;51.952;6.146;2023-04-03T17:05:15;5.07;;;2.13;;
29908;SDS011;36247;51.952;6.146;2023-04-03T17:07:48;3.28;;;2.40;;
29908;SDS011;36247;51.952;6.146;2023-04-03T17:10:17;3.90;;;1.90;;
29908;SDS011;36247;51.952;6.146;2023-04-03T17:12:44;5.13;;;1.95;;
29908;SDS011;36247;51.952;6.146;2023-04-03T17:15:13;3.45;;;2.22;;
29908;SDS011;36247;51.952;6.146;2023-04-03T17:17:42;3.63;;;1.88;;
29908;SDS011;36247;51.952;6.146;2023-04-03T17:20:11;3.38;;;2.10;;
29908;SDS011;36247;51.952;6.146;2023-04-03T17:22:37;5.47;;;3.00;;
29908;SDS011;36247;51.952;6.146;2023-04-03T17:25:03;4.93;;;2.03;;
29908;SDS011;36247;51.952;6.146;2023-04-03T17:27:30;4.03;;;2.05;;
29908;SDS011;36247;51.952;6.146;2023-04-03T17:29:57;3.38;;;2.40;;